Time;durP1;ratioP1;P1;durP2;ratioP2;P2;SDS_P1;SDS_P2;PMS_P1;PMS_P2;Temp;Humidity;BMP_temperature;BMP_pressure;BME280_temperature;BME280_humidity;BME280_pressure;Samples;Min_cycle;Max_cycle;Signal;HPM_P1;HPM_P2
2021/03/15 00:00:52;;;;;;;4.47;2.30;;;3.40;99.90;;;;;;5021991;28;20607;-72
2021/03/15 00:03:19;;;;;;;3.08;2.33;;;3.50;99.90;;;;;;5010789;28;20082;-73
2021/03/15 00:05:44;;;;;;;2.97;2.30;;;3.50;99.90;;;;;;5008864;28;20082;-73
2021/03/15 00:08:10;;;;;;;2.83;1.92;;;3.40;99.90;;;;;;5010038;28;20101;-73
2021/03/15 00:10:36;;;;;;;3.45;2.22;;;3.50;99.90;;;;;;5021879;28;20098;-73
2021/03/15 00:13:02;;;;;;;3.05;2.15;;;3.50;99.90;;;;;;5023767;28;20085;-74
2021/03/15 00:15:28;;;;;;;3.58;2.10;;;3.50;99.90;;;;;;5014777;28;20161;-73
2021/03/15 00:17:54;;;;;;;2.67;1.95;;;3.40;99.90;;;;;;5022030;28;20764;-72
2021/03/15 00:20:22;;;;;;;3.58;2.45;;;3.50;99.90;;;;;;5023938;28;20132;-71
2021/03/15 00:22:49;;;;;;;4.03;2.40;;;3.60;99.90;;;;;;5013432;28;20074;-73
2021/03/15 00:25:16;;;;;;;3.03;2.35;;;3.60;99.90;;;;;;5026171;28;20165;-72
2021/03/15 00:27:42;;;;;;;4.70;2.30;;;3.50;99.90;;;;;;5029004;28;20124;-73
2021/03/15 00:30:11;;;;;;;2.60;2.08;;;3.60;99.90;;;;;;5014534;28;20180;-73
2021/03/15 00:32:37;;;;;;;3.45;2.15;;;3.60;99.90;;;;;;5008281;28;20117;-72
2021/03/15 00:35:04;;;;;;;2.75;1.73;;;3.50;99.90;;;;;;5010773;28;20140;-73
2021/03/15 00:37:30;;;;;;;3.90;2.50;;;3.50;99.90;;;;;;5022317;28;20078;-73
2021/03/15 00:39:56;;;;;;;2.90;2.20;;;3.60;99.90;;;;;;5015152;28;20121;-74
2021/03/15 00:42:22;;;;;;;2.28;2.00;;;3.50;99.90;;;;;;5027632;28;20121;-73
2021/03/15 00:44:48;;;;;;;4.22;2.25;;;3.60;99.90;;;;;;5026005;28;20167;-73
2021/03/15 00:47:13;;;;;;;3.42;2.80;;;3.60;99.90;;;;;;5037064;28;20454;-72
2021/03/15 00:49:39;;;;;;;2.60;2.30;;;3.50;99.90;;;;;;5012499;28;20105;-73
2021/03/15 00:52:05;;;;;;;3.03;2.25;;;3.50;99.90;;;;;;5018559;28;20094;-73
2021/03/15 00:54:30;;;;;;;3.45;2.65;;;3.40;99.90;;;;;;5006869;28;20120;-73
2021/03/15 00:56:56;;;;;;;3.65;2.10;;;3.40;99.90;;;;;;5012354;28;20089;-72
2021/03/15 00:59:22;;;;;;;4.53;2.38;;;3.40;99.90;;;;;;5011773;28;20538;-71
2021/03/15 01:01:47;;;;;;;3.03;2.10;;;3.50;99.90;;;;;;5008717;28;20078;-73
2021/03/15 01:04:14;;;;;;;3.55;2.20;;;3.40;99.90;;;;;;5014813;28;20086;-73
2021/03/15 01:06:41;;;;;;;3.55;2.63;;;3.50;99.90;;;;;;5020306;28;20110;-73
2021/03/15 01:09:07;;;;;;;2.55;2.33;;;3.50;99.90;;;;;;5007479;28;20082;-73
2021/03/15 01:11:33;;;;;;;5.43;2.25;;;3.50;99.90;;;;;;5010906;28;20145;-73
2021/03/15 01:13:59;;;;;;;4.47;2.58;;;3.60;99.90;;;;;;5010838;28;20564;-72
2021/03/15 01:16:24;;;;;;;2.85;2.28;;;3.60;99.90;;;;;;5006594;28;20522;-72
2021/03/15 01:18:50;;;;;;;2.53;2.25;;;3.50;99.90;;;;;;5008213;28;20112;-73
2021/03/15 01:21:16;;;;;;;2.63;2.42;;;3.50;99.90;;;;;;5021861;28;20194;-73
2021/03/15 01:23:41;;;;;;;2.63;2.10;;;3.50;99.90;;;;;;5023586;28;20508;-73
2021/03/15 01:26:07;;;;;;;2.60;2.20;;;3.50;99.90;;;;;;5019815;28;20075;-73
2021/03/15 01:28:33;;;;;;;3.10;2.38;;;3.50;99.90;;;;;;5006145;28;20089;-73
2021/03/15 01:31:00;;;;;;;3.15;2.30;;;3.40;99.90;;;;;;5007864;28;20109;-73
2021/03/15 01:33:26;;;;;;;2.45;2.20;;;3.50;99.90;;;;;;5008487;28;20117;-71
2021/03/15 01:35:51;;;;;;;1.80;1.70;;;3.50;99.90;;;;;;5008723;28;20121;-72
2021/03/15 01:38:17;;;;;;;3.80;2.92;;;3.40;99.90;;;;;;5016667;28;20120;-72
2021/03/15 01:40:43;;;;;;;2.20;2.00;;;3.40;99.90;;;;;;5022678;28;20145;-72
2021/03/15 01:43:09;;;;;;;4.45;2.50;;;3.40;99.90;;;;;;5008786;28;20150;-73
2021/03/15 01:45:35;;;;;;;2.95;2.50;;;3.40;99.90;;;;;;5009901;28;20079;-72
2021/03/15 01:48:03;;;;;;;2.50;2.28;;;3.40;99.90;;;;;;5020557;28;20524;-74
2021/03/15 01:50:28;;;;;;;2.75;2.53;;;3.40;99.90;;;;;;5017276;28;20136;-72
2021/03/15 01:52:55;;;;;;;3.97;2.60;;;3.30;99.90;;;;;;5041011;28;20113;-72
2021/03/15 01:55:22;;;;;;;2.92;2.65;;;3.40;99.90;;;;;;5013604;28;20097;-73
2021/03/15 01:57:49;;;;;;;3.08;2.65;;;3.30;99.90;;;;;;5015761;28;20469;-72
2021/03/15 02:00:17;;;;;;;2.97;2.60;;;3.20;99.90;;;;;;5018913;28;20102;-73
2021/03/15 02:02:56;;;;;;;3.17;2.63;;;3.20;99.90;;;;;;5022037;28;20416;-72
2021/03/15 02:05:22;;;;;;;3.88;2.72;;;3.30;99.90;;;;;;5020954;28;20533;-73
2021/03/15 02:07:48;;;;;;;2.70;2.50;;;3.30;99.90;;;;;;5031507;28;20560;-74
2021/03/15 02:10:14;;;;;;;3.00;2.75;;;3.20;99.90;;;;;;5012326;28;20168;-73
2021/03/15 02:13:16;;;;;;;2.72;2.40;;;3.30;99.90;;;;;;5014843;28;20153;-74
2021/03/15 02:16:06;;;;;;;3.58;2.75;;;3.30;99.90;;;;;;5007412;28;20144;-73
2021/03/15 02:19:16;;;;;;;3.42;2.90;;;3.20;99.90;;;;;;5026863;28;20077;-72
2021/03/15 02:21:54;;;;;;;4.03;2.63;;;3.20;99.90;;;;;;5025935;28;20537;-73
2021/03/15 02:24:37;;;;;;;4.47;3.30;;;3.20;99.90;;;;;;5028738;28;20082;-73
2021/03/15 02:27:40;;;;;;;3.38;2.60;;;3.20;99.90;;;;;;5012169;28;20151;-73
2021/03/15 02:30:25;;;;;;;3.35;3.05;;;3.20;99.90;;;;;;5010852;28;20105;-72
2021/03/15 02:32:55;;;;;;;3.53;3.17;;;3.20;99.90;;;;;;5017145;28;20177;-72
2021/03/15 02:35:33;;;;;;;3.95;2.75;;;3.20;99.90;;;;;;5017063;28;20110;-72
2021/03/15 02:38:11;;;;;;;3.28;2.92;;;3.20;99.90;;;;;;5014278;28;20089;-73
2021/03/15 02:40:44;;;;;;;5.20;4.05;;;3.20;99.90;;;;;;5023136;28;20193;-74
2021/03/15 02:43:16;;;;;;;4.30;2.92;;;3.00;99.90;;;;;;5010400;28;20149;-73
2021/03/15 02:45:44;;;;;;;4.78;3.22;;;3.10;99.90;;;;;;5023098;28;20072;-72
2021/03/15 02:48:12;;;;;;;3.60;3.05;;;3.10;99.90;;;;;;5019473;28;20433;-73
2021/03/15 02:50:41;;;;;;;4.18;3.10;;;3.10;99.90;;;;;;5020397;28;20656;-73
2021/03/15 02:53:10;;;;;;;3.45;2.78;;;3.00;99.90;;;;;;5010740;28;20086;-74
2021/03/15 02:55:37;;;;;;;4.10;3.05;;;3.00;99.90;;;;;;5012046;28;20113;-73
2021/03/15 02:58:04;;;;;;;6.90;3.63;;;3.10;99.90;;;;;;5010165;28;20082;-72
2021/03/15 03:00:31;;;;;;;3.88;3.20;;;3.10;99.90;;;;;;5016178;28;20465;-74
2021/03/15 03:02:58;;;;;;;4.25;3.22;;;3.10;99.90;;;;;;5011516;28;20165;-73
2021/03/15 03:05:24;;;;;;;4.97;3.47;;;3.00;99.90;;;;;;5015235;28;20070;-73
2021/03/15 03:07:53;;;;;;;5.53;3.50;;;3.10;99.90;;;;;;5015167;28;20687;-73
2021/03/15 03:10:22;;;;;;;7.72;3.85;;;3.10;99.90;;;;;;5015584;28;20117;-73
2021/03/15 03:12:50;;;;;;;4.05;2.50;;;3.20;99.90;;;;;;5016418;28;20093;-74
2021/03/15 03:15:23;;;;;;;4.93;3.22;;;3.10;99.90;;;;;;5013798;28;20442;-74
2021/03/15 03:17:51;;;;;;;5.57;3.10;;;3.20;99.90;;;;;;5009146;28;20084;-72
2021/03/15 03:20:22;;;;;;;5.95;3.00;;;3.30;99.90;;;;;;5016481;28;20102;-71
2021/03/15 03:22:52;;;;;;;4.05;3.53;;;3.20;99.90;;;;;;5014268;28;20086;-74
2021/03/15 03:25:21;;;;;;;7.63;3.50;;;3.20;99.90;;;;;;5021685;28;20069;-72
2021/03/15 03:27:55;;;;;;;5.80;3.50;;;3.20;99.90;;;;;;5010820;28;20705;-72
2021/03/15 03:30:27;;;;;;;4.82;3.70;;;3.20;99.90;;;;;;5007981;28;20097;-71
2021/03/15 03:32:55;;;;;;;7.65;3.63;;;3.10;99.90;;;;;;5009285;28;20394;-74
2021/03/15 03:35:22;;;;;;;5.53;4.00;;;2.90;99.90;;;;;;5024593;28;20093;-72
2021/03/15 03:37:48;;;;;;;4.00;2.95;;;3.00;99.90;;;;;;5023828;28;20200;-72
2021/03/15 03:40:15;;;;;;;3.45;3.05;;;3.00;99.90;;;;;;5014688;28;20225;-73
2021/03/15 03:42:41;;;;;;;4.55;3.28;;;3.00;99.90;;;;;;5015734;28;20102;-74
2021/03/15 03:45:08;;;;;;;5.65;3.08;;;3.00;99.90;;;;;;5022294;28;20074;-72
2021/03/15 03:47:34;;;;;;;4.93;3.85;;;3.00;99.90;;;;;;5023062;28;20394;-73
2021/03/15 03:50:00;;;;;;;8.05;3.00;;;2.90;99.90;;;;;;5015749;28;20113;-73
2021/03/15 03:52:28;;;;;;;4.30;3.50;;;3.00;99.90;;;;;;5029661;28;20085;-72
2021/03/15 03:54:57;;;;;;;6.40;3.47;;;3.00;99.90;;;;;;5023148;28;20132;-72
2021/03/15 03:57:35;;;;;;;3.92;2.80;;;3.00;99.90;;;;;;5012284;28;20074;-74
2021/03/15 04:00:06;;;;;;;4.80;2.92;;;3.00;99.90;;;;;;5028642;28;20625;-74
2021/03/15 04:02:33;;;;;;;6.57;3.00;;;3.10;99.90;;;;;;5015194;28;20078;-74
2021/03/15 04:05:07;;;;;;;2.72;2.45;;;3.10;99.90;;;;;;5024101;28;20078;-72
2021/03/15 04:07:38;;;;;;;4.65;3.10;;;3.00;99.90;;;;;;5009823;28;20070;-73
2021/03/15 04:10:09;;;;;;;6.25;3.67;;;3.10;99.90;;;;;;5011931;28;20184;-74
2021/03/15 04:12:40;;;;;;;5.65;2.95;;;3.20;99.90;;;;;;5009847;28;20573;-73
2021/03/15 04:15:06;;;;;;;3.85;2.63;;;3.20;99.90;;;;;;5008548;28;20173;-74
2021/03/15 04:17:38;;;;;;;4.22;2.92;;;3.20;99.90;;;;;;5023774;28;20083;-73
2021/03/15 04:20:08;;;;;;;4.30;3.08;;;3.20;99.90;;;;;;5016248;28;20120;-74
2021/03/15 04:22:45;;;;;;;4.72;2.60;;;3.20;99.90;;;;;;5006112;28;20535;-74
2021/03/15 04:25:12;;;;;;;6.47;2.70;;;3.30;99.90;;;;;;5020942;28;20148;-73
2021/03/15 04:27:40;;;;;;;7.38;3.20;;;3.20;99.90;;;;;;5012767;28;20082;-73
2021/03/15 04:30:07;;;;;;;3.42;2.60;;;3.20;99.90;;;;;;5006638;28;20098;-73
2021/03/15 04:32:33;;;;;;;5.22;3.00;;;3.20;99.90;;;;;;5022617;28;20529;-72
2021/03/15 04:34:59;;;;;;;6.38;2.95;;;3.20;99.90;;;;;;5009263;28;20078;-72
2021/03/15 04:37:26;;;;;;;5.18;2.65;;;3.20;99.90;;;;;;5040014;28;20086;-72
2021/03/15 04:39:54;;;;;;;10.30;3.15;;;3.10;99.90;;;;;;5017483;28;20148;-72
2021/03/15 04:42:21;;;;;;;2.95;2.42;;;3.20;99.90;;;;;;5018733;28;20092;-73
2021/03/15 04:44:47;;;;;;;3.38;3.00;;;3.10;99.90;;;;;;5030359;28;20121;-72
2021/03/15 04:47:14;;;;;;;4.03;2.75;;;3.00;99.90;;;;;;5022864;28;20579;-73
2021/03/15 04:49:41;;;;;;;3.30;2.58;;;3.10;99.90;;;;;;5007928;28;20220;-74
2021/03/15 04:52:06;;;;;;;4.82;3.03;;;3.10;99.90;;;;;;5025561;28;20085;-73
2021/03/15 04:54:33;;;;;;;6.30;3.83;;;3.10;99.90;;;;;;5009957;28;20100;-72
2021/03/15 04:56:59;;;;;;;6.72;3.58;;;3.10;99.90;;;;;;5007834;28;20140;-73
2021/03/15 04:59:27;;;;;;;5.20;3.22;;;3.00;99.90;;;;;;5012489;28;20082;-73
2021/03/15 05:01:54;;;;;;;5.18;3.13;;;3.00;99.90;;;;;;5021753;28;20439;-73
2021/03/15 05:04:22;;;;;;;5.15;3.05;;;2.90;99.90;;;;;;5024793;28;20579;-73
2021/03/15 05:09:21;;;;;;;4.30;3.40;;;2.80;99.90;;;;;;5018266;28;20136;-78
2021/03/15 05:11:49;;;;;;;5.45;3.35;;;2.80;99.90;;;;;;5018397;28;20659;-76
2021/03/15 05:14:16;;;;;;;5.72;3.25;;;2.70;99.90;;;;;;5011775;28;20110;-78
2021/03/15 05:16:43;;;;;;;3.42;2.97;;;2.70;99.90;;;;;;5008138;28;20077;-78
2021/03/15 05:19:10;;;;;;;4.82;2.92;;;2.60;99.90;;;;;;5038558;28;20086;-78
2021/03/15 05:21:38;;;;;;;5.03;3.20;;;2.60;99.90;;;;;;5020544;28;20090;-77
2021/03/15 05:24:04;;;;;;;5.55;3.78;;;2.80;99.90;;;;;;5007652;28;20082;-78
2021/03/15 05:26:36;;;;;;;4.38;3.38;;;2.80;99.90;;;;;;5010781;28;20070;-77
2021/03/15 05:29:04;;;;;;;4.80;3.10;;;2.90;99.90;;;;;;5021787;28;20095;-78
2021/03/15 05:31:30;;;;;;;5.05;3.20;;;2.80;99.90;;;;;;5009449;28;20161;-78
2021/03/15 05:33:57;;;;;;;7.00;3.13;;;2.80;99.90;;;;;;5008604;28;20101;-78
2021/03/15 05:36:24;;;;;;;7.72;4.55;;;2.90;99.90;;;;;;5009883;28;20156;-78
2021/03/15 05:38:50;;;;;;;8.30;4.07;;;2.80;99.90;;;;;;5014553;28;20575;-78
2021/03/15 05:41:18;;;;;;;6.20;3.38;;;2.80;99.90;;;;;;5011757;28;20229;-79
2021/03/15 05:44:03;;;;;;;6.35;3.03;;;2.90;99.90;;;;;;5012820;28;20070;-78
2021/03/15 05:46:55;;;;;;;6.93;2.67;;;3.00;99.90;;;;;;5029124;28;20081;-79
2021/03/15 05:49:41;;;;;;;4.93;2.97;;;2.90;99.90;;;;;;5009297;28;20150;-78
2021/03/15 05:52:41;;;;;;;3.65;2.90;;;2.80;99.90;;;;;;5024247;28;20107;-78
2021/03/15 05:55:06;;;;;;;3.53;2.70;;;2.90;99.90;;;;;;5029368;28;20071;-78
2021/03/15 05:58:11;;;;;;;3.00;2.50;;;2.90;99.90;;;;;;5015942;28;20144;-78
2021/03/15 06:00:46;;;;;;;6.00;4.70;;;3.00;99.90;;;;;;5041200;28;20100;-79
2021/03/15 06:03:26;;;;;;;;;;;2.90;99.90;;;;;;5014038;28;20517;-78
2021/03/15 06:05:55;;;;;;;5.32;3.30;;;2.90;99.90;;;;;;5032497;28;20056;-77
2021/03/15 06:08:22;;;;;;;6.43;4.97;;;3.00;99.90;;;;;;5026418;28;20178;-78
2021/03/15 06:11:00;;;;;;;4.13;2.78;;;2.90;99.90;;;;;;5023524;28;20089;-78
2021/03/15 06:13:28;;;;;;;4.13;3.05;;;2.90;99.90;;;;;;5021901;28;20085;-78
2021/03/15 06:15:54;;;;;;;4.18;3.22;;;3.00;99.90;;;;;;5016260;28;20298;-79
2021/03/15 06:18:20;;;;;;;3.78;2.90;;;3.10;99.90;;;;;;5011172;28;20537;-79
2021/03/15 06:20:50;;;;;;;6.85;4.10;;;3.10;99.90;;;;;;5014415;28;20552;-77
2021/03/15 06:23:16;;;;;;;7.47;5.88;;;3.00;99.90;;;;;;5035388;28;20070;-78
2021/03/15 06:25:43;;;;;;;12.32;7.40;;;3.00;99.90;;;;;;5032325;28;20145;-78
2021/03/15 06:28:11;;;;;;;6.07;4.20;;;3.00;99.90;;;;;;5040450;28;20117;-77
2021/03/15 06:30:37;;;;;;;5.53;3.67;;;3.00;99.90;;;;;;5023405;28;20184;-77
2021/03/15 06:33:03;;;;;;;4.07;3.45;;;3.10;99.90;;;;;;5015126;28;20094;-77
2021/03/15 06:35:34;;;;;;;6.82;3.53;;;3.20;99.90;;;;;;5016749;28;20441;-77
2021/03/15 06:38:00;;;;;;;6.18;3.13;;;3.30;99.90;;;;;;5029581;28;20090;-77
2021/03/15 06:40:27;;;;;;;5.88;2.63;;;3.30;99.90;;;;;;5023379;28;20098;-78
2021/03/15 06:42:53;;;;;;;3.60;3.08;;;3.10;99.90;;;;;;5026731;28;20080;-77
2021/03/15 06:45:20;;;;;;;3.60;2.47;;;3.20;99.90;;;;;;5015919;28;20098;-78
2021/03/15 06:47:48;;;;;;;5.05;2.78;;;3.10;99.90;;;;;;5023629;28;20513;-77
2021/03/15 06:50:15;;;;;;;4.82;2.30;;;3.20;99.90;;;;;;5027425;28;20099;-79
2021/03/15 06:52:53;;;;;;;2.47;2.20;;;3.10;99.90;;;;;;5024666;28;20082;-78
2021/03/15 06:55:20;;;;;;;2.92;2.22;;;3.20;99.90;;;;;;5016027;28;20073;-77
2021/03/15 06:57:46;;;;;;;3.47;2.83;;;3.20;99.90;;;;;;5024563;28;20105;-79
2021/03/15 07:00:12;;;;;;;4.45;2.58;;;3.20;99.90;;;;;;5024728;28;20090;-78
2021/03/15 07:02:38;;;;;;;4.18;2.17;;;3.20;99.90;;;;;;5027470;28;20077;-79
2021/03/15 07:05:13;;;;;;;3.20;2.50;;;3.30;99.90;;;;;;5014219;28;20538;-80
2021/03/15 07:07:47;;;;;;;3.25;2.60;;;3.20;99.90;;;;;;5014051;28;20121;-79
2021/03/15 07:10:19;;;;;;;3.28;2.20;;;3.30;99.90;;;;;;5031520;28;20078;-78
2021/03/15 07:12:45;;;;;;;5.20;2.30;;;3.40;99.90;;;;;;5030602;28;20473;-81
2021/03/15 07:15:11;;;;;;;2.55;2.10;;;3.40;99.90;;;;;;5016865;28;20102;-79
2021/03/15 07:17:38;;;;;;;3.05;2.05;;;3.50;99.90;;;;;;5017685;28;20099;-80
2021/03/15 07:20:05;;;;;;;3.10;2.45;;;3.60;99.90;;;;;;5033685;28;20153;-78
2021/03/15 07:22:31;;;;;;;3.90;3.35;;;3.60;99.90;;;;;;5031356;28;20122;-82
2021/03/15 07:25:04;;;;;;;4.78;2.70;;;3.70;99.90;;;;;;5025264;28;20083;-80
2021/03/15 07:27:31;;;;;;;2.50;2.30;;;3.70;99.90;;;;;;5039947;28;20149;-79
2021/03/15 07:29:57;;;;;;;3.75;2.92;;;3.90;99.90;;;;;;5015581;28;20173;-79
2021/03/15 07:32:41;;;;;;;5.22;2.60;;;4.00;99.90;;;;;;5019117;28;20085;-82
2021/03/15 07:35:22;;;;;;;3.67;2.67;;;4.00;99.90;;;;;;5023214;28;20070;-81
2021/03/15 07:37:48;;;;;;;2.20;2.00;;;4.10;99.90;;;;;;5019647;28;20152;-79
2021/03/15 07:40:33;;;;;;;3.42;2.00;;;4.20;99.90;;;;;;5035333;28;20144;-78
2021/03/15 07:43:01;;;;;;;4.95;1.98;;;4.20;99.90;;;;;;5036632;28;20078;-81
2021/03/15 07:45:31;;;;;;;2.90;2.35;;;4.30;99.90;;;;;;5034126;28;20086;-80
2021/03/15 07:48:11;;;;;;;5.20;2.17;;;4.40;99.90;;;;;;5013535;28;20592;-77
2021/03/15 07:50:38;;;;;;;5.45;1.88;;;4.40;99.90;;;;;;5028561;28;20101;-78
2021/03/15 07:53:07;;;;;;;2.15;1.70;;;4.40;99.90;;;;;;5011416;28;20589;-80
2021/03/15 07:55:34;;;;;;;2.50;2.10;;;4.40;99.90;;;;;;5010959;28;20078;-79
2021/03/15 07:57:59;;;;;;;3.00;1.58;;;4.50;99.90;;;;;;5020764;28;20186;-78
2021/03/15 08:00:26;;;;;;;4.47;2.10;;;4.40;99.90;;;;;;5011942;28;20190;-78
2021/03/15 08:02:52;;;;;;;2.58;1.48;;;4.40;99.90;;;;;;5012535;28;20117;-79
2021/03/15 08:05:18;;;;;;;3.20;1.95;;;4.30;99.90;;;;;;5018075;28;20584;-78
2021/03/15 08:07:43;;;;;;;2.13;1.30;;;4.30;99.90;;;;;;5018004;28;20489;-79
2021/03/15 08:10:09;;;;;;;2.10;1.75;;;4.40;99.90;;;;;;5019719;28;20187;-78
2021/03/15 08:12:36;;;;;;;4.05;1.48;;;4.50;99.90;;;;;;5024716;28;20074;-77
2021/03/15 08:15:06;;;;;;;2.78;1.67;;;4.50;99.90;;;;;;5010510;28;20105;-77
2021/03/15 08:17:36;;;;;;;2.65;1.80;;;4.60;99.90;;;;;;5026105;28;20086;-78
2021/03/15 08:20:04;;;;;;;2.47;1.85;;;4.60;99.90;;;;;;5010342;28;20136;-79
2021/03/15 08:22:33;;;;;;;3.15;1.42;;;4.60;99.90;;;;;;5018258;28;20074;-78
2021/03/15 08:25:01;;;;;;;3.40;2.10;;;4.60;99.90;;;;;;5027802;28;20145;-79
2021/03/15 08:27:29;;;;;;;4.03;1.35;;;4.60;99.90;;;;;;5026985;28;20105;-79
2021/03/15 08:29:59;;;;;;;4.13;1.40;;;4.60;99.90;;;;;;5027715;28;20109;-77
2021/03/15 08:32:26;;;;;;;4.97;1.50;;;4.60;99.90;;;;;;5021648;28;20078;-78
2021/03/15 08:34:52;;;;;;;1.80;1.10;;;4.60;99.90;;;;;;5015380;28;20078;-78
2021/03/15 08:37:54;;;;;;;5.68;2.33;;;4.60;99.90;;;;;;5019314;28;20132;-78
2021/03/15 08:40:44;;;;;;;2.85;0.98;;;4.60;99.90;;;;;;5019272;28;20089;-79
2021/03/15 08:43:19;;;;;;;1.15;0.77;;;4.50;99.90;;;;;;5017399;28;20098;-78
2021/03/15 08:45:50;;;;;;;;;;;4.50;99.90;;;;;;5021992;28;20538;-79
2021/03/15 08:48:17;;;;;;;2.25;1.00;;;4.60;99.90;;;;;;5015568;28;20257;-78
2021/03/15 08:50:49;;;;;;;3.50;0.80;;;4.50;99.90;;;;;;5016072;28;20185;-79
2021/03/15 08:53:41;;;;;;;2.22;1.52;;;4.50;99.90;;;;;;5011728;28;20086;-80
2021/03/15 08:56:17;;;;;;;3.25;1.90;;;4.60;99.90;;;;;;5021312;28;20100;-78
2021/03/15 08:58:47;;;;;;;1.45;0.90;;;4.70;99.90;;;;;;5023231;28;20090;-79
2021/03/15 09:01:26;;;;;;;3.17;0.88;;;4.80;99.90;;;;;;5011863;28;20090;-78
2021/03/15 09:03:56;;;;;;;3.10;0.90;;;4.80;99.90;;;;;;5010603;28;20093;-78
2021/03/15 09:06:36;;;;;;;1.00;0.80;;;4.80;99.90;;;;;;5027497;28;20538;-77
2021/03/15 09:09:20;;;;;;;3.67;1.13;;;4.70;99.90;;;;;;5027744;28;20450;-78
2021/03/15 09:11:49;;;;;;;2.42;1.63;;;4.70;99.90;;;;;;5043057;28;20082;-80
2021/03/15 09:14:17;;;;;;;1.00;0.82;;;4.70;99.90;;;;;;5014063;28;20078;-79
2021/03/15 09:16:45;;;;;;;1.38;0.80;;;4.70;99.90;;;;;;5030296;28;20101;-79
2021/03/15 09:19:30;;;;;;;1.20;0.80;;;4.80;99.90;;;;;;5024606;28;20098;-79
2021/03/15 09:22:01;;;;;;;4.32;1.15;;;4.80;99.90;;;;;;5014555;28;20081;-79
2021/03/15 09:24:46;;;;;;;2.72;1.67;;;4.90;99.90;;;;;;5028077;28;20074;-79
2021/03/15 09:27:30;;;;;;;1.60;0.93;;;4.90;99.90;;;;;;5027875;28;20577;-80
2021/03/15 09:30:18;;;;;;;2.50;1.08;;;4.80;99.90;;;;;;5016685;28;20090;-81
2021/03/15 09:32:48;;;;;;;2.88;1.55;;;4.70;99.90;;;;;;5020472;28;20079;-78
2021/03/15 09:35:25;;;;;;;1.40;1.00;;;4.70;99.90;;;;;;5018126;28;20120;-78
2021/03/15 09:38:05;;;;;;;0.90;0.80;;;4.70;99.90;;;;;;5040481;28;20113;-77
2021/03/15 09:40:53;;;;;;;1.08;0.88;;;4.60;99.90;;;;;;5015377;28;20094;-77
2021/03/15 09:43:20;;;;;;;3.33;1.13;;;4.50;99.90;;;;;;5021945;28;20169;-77
2021/03/15 09:45:54;;;;;;;1.20;0.93;;;4.60;99.90;;;;;;5025082;28;20108;-78
2021/03/15 09:48:22;;;;;;;1.70;1.10;;;4.60;99.90;;;;;;5012763;28;20110;-79
2021/03/15 09:50:53;;;;;;;1.58;1.00;;;4.50;99.90;;;;;;5026091;28;20155;-78
2021/03/15 09:53:19;;;;;;;2.95;1.17;;;4.60;99.90;;;;;;5015950;28;20082;-78
2021/03/15 09:55:45;;;;;;;1.13;1.02;;;4.60;99.90;;;;;;5028373;28;20105;-79
2021/03/15 09:58:14;;;;;;;1.23;1.10;;;4.60;99.90;;;;;;5027352;28;20096;-79
2021/03/15 10:00:41;;;;;;;4.18;2.10;;;4.60;99.90;;;;;;5023830;28;20121;-80
2021/03/15 10:03:07;;;;;;;2.15;1.40;;;4.70;99.90;;;;;;5022987;28;20154;-78
2021/03/15 10:05:33;;;;;;;1.60;1.20;;;4.60;99.90;;;;;;5018887;28;20169;-77
2021/03/15 10:07:59;;;;;;;1.30;1.20;;;4.70;99.90;;;;;;5028020;28;20155;-79
2021/03/15 10:10:25;;;;;;;1.77;1.05;;;4.60;99.90;;;;;;5026000;28;20113;-79
2021/03/15 10:13:03;;;;;;;1.95;0.93;;;4.60;99.90;;;;;;5023646;28;20176;-78
2021/03/15 10:15:29;;;;;;;0.88;0.77;;;4.40;99.90;;;;;;5017484;28;20078;-77
2021/03/15 10:17:55;;;;;;;2.47;2.00;;;4.50;99.90;;;;;;5022679;28;20189;-77
2021/03/15 10:20:27;;;;;;;1.67;0.93;;;4.50;99.90;;;;;;5025203;28;20611;-77
2021/03/15 10:22:53;;;;;;;2.03;1.15;;;4.40;99.90;;;;;;5023180;28;20109;-79
2021/03/15 10:25:19;;;;;;;1.83;1.30;;;4.40;99.90;;;;;;5024063;28;20062;-80
2021/03/15 10:27:57;;;;;;;2.58;1.30;;;4.50;99.90;;;;;;5034441;28;20105;-79
2021/03/15 10:30:30;;;;;;;4.07;0.75;;;4.50;99.90;;;;;;5016854;28;20894;-78
2021/03/15 10:32:56;;;;;;;2.53;1.05;;;4.50;99.90;;;;;;5034993;28;20089;-77
2021/03/15 10:35:24;;;;;;;2.80;0.98;;;4.60;99.90;;;;;;5013331;28;20086;-78
2021/03/15 10:37:53;;;;;;;3.65;1.63;;;4.60;99.90;;;;;;5024584;28;20087;-80
2021/03/15 10:40:21;;;;;;;1.63;1.33;;;4.60;99.90;;;;;;5019472;28;20183;-82
2021/03/15 10:42:47;;;;;;;1.33;1.13;;;4.50;99.90;;;;;;5037872;28;20085;-79
2021/03/15 10:45:14;;;;;;;3.40;1.02;;;4.40;99.90;;;;;;5023312;28;20597;-76
2021/03/15 10:47:40;;;;;;;1.67;0.80;;;4.40;99.90;;;;;;5029801;28;20187;-80
2021/03/15 10:50:32;;;;;;;2.28;1.00;;;4.50;99.90;;;;;;5027301;28;20089;-79
2021/03/15 10:53:22;;;;;;;1.10;1.00;;;4.50;99.90;;;;;;5023356;28;20082;-78
2021/03/15 10:55:49;;;;;;;1.52;0.75;;;4.40;99.90;;;;;;5037808;28;20078;-78
2021/03/15 10:58:24;;;;;;;3.83;1.23;;;4.40;99.90;;;;;;5026579;28;20121;-78
2021/03/15 11:01:00;;;;;;;1.30;0.98;;;4.50;99.90;;;;;;5023134;28;20100;-80
2021/03/15 11:03:31;;;;;;;3.33;1.30;;;4.50;99.90;;;;;;5019434;28;20082;-79
2021/03/15 11:06:13;;;;;;;2.67;1.20;;;4.40;99.90;;;;;;5029401;28;20070;-78
2021/03/15 11:08:40;;;;;;;2.20;1.70;;;4.50;99.90;;;;;;5025468;28;20172;-78
2021/03/15 11:11:20;;;;;;;2.65;0.98;;;4.50;99.90;;;;;;5022699;28;20078;-79
2021/03/15 11:13:47;;;;;;;4.82;1.50;;;4.50;99.90;;;;;;5031377;28;20082;-79
2021/03/15 11:16:26;;;;;;;3.17;1.77;;;4.50;99.90;;;;;;5039928;28;20557;-78
2021/03/15 11:19:07;;;;;;;2.85;2.00;;;4.50;99.90;;;;;;5031783;28;20105;-78
2021/03/15 11:21:41;;;;;;;6.82;2.90;;;4.60;99.90;;;;;;5037984;28;20102;-79
2021/03/15 11:24:09;;;;;;;7.57;4.43;;;4.70;99.90;;;;;;5028110;28;20090;-80
2021/03/15 11:26:45;;;;;;;3.20;2.08;;;4.60;99.90;;;;;;5020283;28;20075;-80
2021/03/15 11:29:12;;;;;;;2.17;1.25;;;4.60;99.90;;;;;;5020173;28;20172;-77
2021/03/15 11:31:47;;;;;;;1.30;0.70;;;4.60;99.90;;;;;;5025245;28;20078;-80
2021/03/15 11:34:16;;;;;;;;;;;4.60;99.90;;;;;;5033284;28;20089;-80
2021/03/15 11:36:45;;;;;;;1.48;0.90;;;4.70;99.90;;;;;;5017256;28;20060;-78
2021/03/15 11:39:11;;;;;;;2.03;0.65;;;4.70;99.90;;;;;;5015488;28;20100;-80
2021/03/15 11:41:39;;;;;;;1.55;0.80;;;4.70;99.90;;;;;;5023709;28;20124;-78
2021/03/15 11:44:05;;;;;;;1.67;0.60;;;4.80;99.90;;;;;;5023605;28;20088;-79
2021/03/15 11:46:31;;;;;;;1.55;1.08;;;4.80;99.90;;;;;;5017861;28;20490;-78
2021/03/15 11:48:57;;;;;;;1.60;1.42;;;4.70;99.90;;;;;;5011743;28;20170;-78
2021/03/15 11:51:22;;;;;;;3.08;1.02;;;4.70;99.90;;;;;;5027996;28;20557;-75
2021/03/15 11:53:48;;;;;;;1.13;0.80;;;4.70;99.90;;;;;;5026313;28;20088;-77
2021/03/15 11:56:15;;;;;;;1.73;0.90;;;4.50;99.90;;;;;;5013853;28;20178;-78
2021/03/15 11:58:41;;;;;;;0.98;0.70;;;4.40;99.90;;;;;;5017183;28;20160;-77
2021/03/15 12:01:07;;;;;;;1.98;1.15;;;4.50;99.90;;;;;;5016588;28;20102;-77
2021/03/15 12:03:33;;;;;;;1.65;1.40;;;4.30;99.90;;;;;;5013717;28;20127;-79
2021/03/15 12:06:00;;;;;;;2.42;1.15;;;4.40;99.90;;;;;;5009842;28;20920;-79
2021/03/15 12:08:27;;;;;;;1.58;0.90;;;4.40;99.90;;;;;;5025936;28;20292;-79
2021/03/15 12:10:52;;;;;;;1.33;0.90;;;4.40;99.90;;;;;;5029615;28;20074;-80
2021/03/15 12:13:18;;;;;;;0.95;0.73;;;4.40;99.90;;;;;;5016033;28;20089;-77
2021/03/15 12:15:44;;;;;;;0.68;0.50;;;4.50;99.90;;;;;;5017795;28;20105;-79
2021/03/15 12:18:10;;;;;;;0.93;0.63;;;4.30;99.90;;;;;;5014128;28;20108;-79
2021/03/15 12:20:37;;;;;;;0.82;0.60;;;4.30;99.90;;;;;;5012200;28;20101;-78
2021/03/15 12:23:03;;;;;;;1.45;1.00;;;4.30;99.90;;;;;;5026850;28;20169;-78
2021/03/15 12:25:39;;;;;;;1.25;1.00;;;4.40;99.90;;;;;;5027314;28;20161;-77
2021/03/15 12:28:06;;;;;;;1.33;0.77;;;4.40;99.90;;;;;;5028184;28;20097;-77
2021/03/15 12:30:32;;;;;;;2.72;0.82;;;4.50;99.90;;;;;;5019917;28;20453;-79
2021/03/15 12:32:58;;;;;;;1.58;0.65;;;4.50;99.90;;;;;;5022592;28;20082;-77
2021/03/15 12:35:25;;;;;;;0.82;0.65;;;4.50;99.90;;;;;;5017176;28;20090;-78
2021/03/15 12:37:50;;;;;;;0.95;0.60;;;4.50;99.90;;;;;;5028039;28;20180;-79
2021/03/15 12:40:18;;;;;;;1.02;0.70;;;4.50;99.90;;;;;;5043558;28;20204;-78
2021/03/15 12:42:43;;;;;;;1.15;0.60;;;4.50;99.90;;;;;;5019196;28;20129;-77
2021/03/15 12:45:10;;;;;;;0.80;0.50;;;4.50;99.90;;;;;;5019277;28;20097;-78
2021/03/15 12:47:36;;;;;;;0.70;0.57;;;4.50;99.90;;;;;;5025504;28;20113;-78
2021/03/15 12:50:03;;;;;;;3.00;1.33;;;4.50;99.90;;;;;;5025049;28;20467;-78
2021/03/15 12:52:29;;;;;;;1.98;0.80;;;4.50;99.90;;;;;;5024071;28;20722;-77
2021/03/15 12:54:55;;;;;;;0.98;0.40;;;4.40;99.90;;;;;;5020928;28;20085;-78
2021/03/15 12:57:21;;;;;;;2.58;1.17;;;4.40;99.90;;;;;;5026887;28;20098;-78
2021/03/15 12:59:47;;;;;;;4.88;0.95;;;4.40;99.90;;;;;;5026010;28;20526;-77
2021/03/15 13:02:13;;;;;;;3.22;1.13;;;4.40;99.90;;;;;;5021664;28;20193;-78
2021/03/15 13:04:38;;;;;;;1.98;0.70;;;4.50;99.90;;;;;;5010063;28;20160;-77
2021/03/15 13:07:04;;;;;;;0.68;0.43;;;4.50;99.90;;;;;;5012631;28;20161;-78
2021/03/15 13:09:29;;;;;;;0.60;0.50;;;4.50;99.90;;;;;;5026364;28;20120;-77
2021/03/15 13:11:56;;;;;;;1.98;0.50;;;4.50;99.90;;;;;;5028848;28;20611;-78
2021/03/15 13:14:23;;;;;;;1.83;0.60;;;4.60;99.90;;;;;;5023924;28;20088;-77